AZG237 UBBB-EDFH
Flight info
| Callsign | AZG237 |
|---|---|
| Flight time | 4h 12m |
| Altitude | 36000 |
| Route | RASAM N199 EDATA M11 REBLO UM11 TBN UW71 CRM UL746 ODERO L746 LUGEB DCT EKSUN DCT PELUR DCT NEPOT/N0488F380 DCT DEGET DCT ABETI DCT RENKA L610 UPALA Z744 LEPSA/N0471F240 Z104 OLGIL |
| Aircraft | B748/H-SDE3FGHIM1M2RWXY/LB1 |
Departure
| Time | 2026-04-27 11:27 |
|---|---|
| Airport | Heydar Aliyev International Airport (UBBB) |
Arrival
| Time | 2026-04-27 15:39 |
|---|---|
| Airport | Frankfurt-Hahn Airport (EDFH) |
| Time | Latitude | Longitude | Altitude | Speed | Heading |
|---|---|---|---|---|---|
| 2026-04-27 11:06 | 40.45912 | 50.05864 | 23 ft | 0 kts | 270° |
| 2026-04-27 11:18 | 40.45913 | 50.05881 | 22 ft | 1 kts | 269° |
| 2026-04-27 11:18 | 40.45913 | 50.05897 | 22 ft | 1 kts | 269° |
| 2026-04-27 11:19 | 40.45913 | 50.05914 | 22 ft | 1 kts | 269° |
| 2026-04-27 11:19 | 40.45913 | 50.05931 | 22 ft | 1 kts | 262° |
| 2026-04-27 11:19 | 40.45917 | 50.05947 | 22 ft | 1 kts | 236° |
| 2026-04-27 11:19 | 40.45926 | 50.05959 | 22 ft | 1 kts | 214° |
| 2026-04-27 11:20 | 40.45938 | 50.05965 | 22 ft | 1 kts | 181° |
| 2026-04-27 11:20 | 40.45950 | 50.05966 | 22 ft | 1 kts | 179° |
| 2026-04-27 11:20 | 40.45958 | 50.05966 | 22 ft | 0 kts | 180° |
| 2026-04-27 11:20 | 40.45958 | 50.05967 | 22 ft | 0 kts | 180° |
| 2026-04-27 11:21 | 40.45958 | 50.05966 | 22 ft | 0 kts | 180° |
| 2026-04-27 11:23 | 40.45958 | 50.05967 | 22 ft | 0 kts | 180° |
| 2026-04-27 11:24 | 40.45947 | 50.05967 | 22 ft | 6 kts | 180° |
| 2026-04-27 11:24 | 40.45871 | 50.05976 | 22 ft | 12 kts | 150° |
| 2026-04-27 11:24 | 40.45834 | 50.06083 | 22 ft | 12 kts | 134° |
| 2026-04-27 11:24 | 40.45729 | 50.06106 | 22 ft | 16 kts | 178° |
| 2026-04-27 11:25 | 40.45654 | 50.06182 | 22 ft | 15 kts | 94° |
| 2026-04-27 11:25 | 40.45658 | 50.06294 | 22 ft | 10 kts | 69° |
| 2026-04-27 11:25 | 40.45710 | 50.06321 | 22 ft | 6 kts | 359° |
| 2026-04-27 11:25 | 40.45718 | 50.06321 | 22 ft | 0 kts | 359° |
| 2026-04-27 11:26 | 40.45760 | 50.06321 | 22 ft | 15 kts | 359° |
| 2026-04-27 11:26 | 40.46037 | 50.06317 | 22 ft | 68 kts | 359° |
| 2026-04-27 11:26 | 40.46708 | 50.06307 | 22 ft | 124 kts | 359° |
| 2026-04-27 11:27 | 40.47747 | 50.06293 | 29 ft | 172 kts | 360° |
| 2026-04-27 11:27 | 40.49018 | 50.06320 | 303 ft | 188 kts | 1° |
| 2026-04-27 11:27 | 40.50339 | 50.06253 | 680 ft | 197 kts | 347° |
| 2026-04-27 11:27 | 40.51658 | 50.05876 | 1264 ft | 197 kts | 348° |
| 2026-04-27 11:28 | 40.53008 | 50.05506 | 1761 ft | 198 kts | 348° |
| 2026-04-27 11:28 | 40.54385 | 50.05137 | 1985 ft | 209 kts | 348° |
| 2026-04-27 11:28 | 40.55814 | 50.04756 | 2311 ft | 212 kts | 348° |
| 2026-04-27 11:28 | 40.57288 | 50.04366 | 2548 ft | 222 kts | 348° |
| 2026-04-27 11:29 | 40.58815 | 50.03911 | 2825 ft | 230 kts | 337° |
| 2026-04-27 11:29 | 40.60090 | 50.02664 | 3171 ft | 233 kts | 306° |
| 2026-04-27 11:29 | 40.60725 | 50.00682 | 3502 ft | 244 kts | 277° |
| 2026-04-27 11:29 | 40.60885 | 49.98405 | 3942 ft | 259 kts | 275° |
| 2026-04-27 11:30 | 40.61055 | 49.96016 | 4662 ft | 265 kts | 276° |
| 2026-04-27 11:30 | 40.61225 | 49.93561 | 5266 ft | 276 kts | 274° |
| 2026-04-27 11:30 | 40.61357 | 49.91029 | 5946 ft | 282 kts | 274° |
| 2026-04-27 11:30 | 40.61543 | 49.88449 | 6643 ft | 287 kts | 276° |
| 2026-04-27 11:31 | 40.61729 | 49.85811 | 7364 ft | 290 kts | 272° |
| 2026-04-27 11:31 | 40.61767 | 49.83182 | 7961 ft | 286 kts | 271° |
| 2026-04-27 11:31 | 40.61794 | 49.80589 | 8454 ft | 285 kts | 271° |
| 2026-04-27 11:31 | 40.61802 | 49.77949 | 9034 ft | 291 kts | 271° |
| 2026-04-27 11:32 | 40.61799 | 49.75291 | 9702 ft | 295 kts | 270° |
| 2026-04-27 11:32 | 40.61780 | 49.72549 | 10308 ft | 300 kts | 269° |
| 2026-04-27 11:32 | 40.61759 | 49.69788 | 10732 ft | 313 kts | 269° |
| 2026-04-27 11:32 | 40.61736 | 49.66803 | 10936 ft | 333 kts | 269° |
| 2026-04-27 11:33 | 40.61711 | 49.63674 | 11114 ft | 354 kts | 269° |
| 2026-04-27 11:33 | 40.61683 | 49.60366 | 11274 ft | 375 kts | 269° |
| 2026-04-27 11:33 | 40.61648 | 49.56813 | 11536 ft | 392 kts | 269° |
| 2026-04-27 11:33 | 40.61613 | 49.53182 | 12192 ft | 398 kts | 269° |
| 2026-04-27 11:34 | 40.61576 | 49.49545 | 12860 ft | 403 kts | 269° |
| 2026-04-27 11:34 | 40.61537 | 49.45817 | 13553 ft | 408 kts | 269° |
| 2026-04-27 11:34 | 40.61497 | 49.42052 | 14235 ft | 412 kts | 269° |
| 2026-04-27 11:34 | 40.61456 | 49.38283 | 14887 ft | 416 kts | 269° |
| 2026-04-27 11:35 | 40.61414 | 49.34481 | 15528 ft | 420 kts | 269° |
| 2026-04-27 11:35 | 40.61371 | 49.30598 | 16157 ft | 424 kts | 269° |
| 2026-04-27 11:35 | 40.61327 | 49.26745 | 16762 ft | 427 kts | 269° |
| 2026-04-27 11:35 | 40.61282 | 49.22778 | 17361 ft | 431 kts | 269° |
| 2026-04-27 11:36 | 40.61237 | 49.18865 | 17932 ft | 435 kts | 269° |
| 2026-04-27 11:36 | 40.61165 | 49.14852 | 18498 ft | 438 kts | 268° |
| 2026-04-27 11:36 | 40.61085 | 49.10793 | 19053 ft | 442 kts | 268° |
| 2026-04-27 11:36 | 40.61004 | 49.06773 | 19585 ft | 446 kts | 268° |
| 2026-04-27 11:37 | 40.60921 | 49.02680 | 20108 ft | 449 kts | 268° |
| 2026-04-27 11:37 | 40.60836 | 48.98566 | 20618 ft | 452 kts | 268° |
| 2026-04-27 11:37 | 40.60750 | 48.94452 | 21115 ft | 456 kts | 268° |
| 2026-04-27 11:37 | 40.60661 | 48.90212 | 21614 ft | 459 kts | 268° |
| 2026-04-27 11:38 | 40.60571 | 48.85992 | 22097 ft | 463 kts | 268° |
| 2026-04-27 11:38 | 40.60480 | 48.81790 | 22566 ft | 466 kts | 268° |
| 2026-04-27 11:38 | 40.60386 | 48.77501 | 23012 ft | 470 kts | 268° |
| 2026-04-27 11:38 | 40.60291 | 48.73199 | 23379 ft | 475 kts | 268° |
| 2026-04-27 11:39 | 40.60192 | 48.68800 | 23800 ft | 479 kts | 268° |
| 2026-04-27 11:39 | 40.60093 | 48.64444 | 24265 ft | 482 kts | 268° |
| 2026-04-27 11:39 | 40.59991 | 48.60027 | 24728 ft | 485 kts | 268° |
| 2026-04-27 11:39 | 40.59887 | 48.55564 | 25177 ft | 488 kts | 268° |
| 2026-04-27 11:40 | 40.59781 | 48.51094 | 25611 ft | 491 kts | 268° |
| 2026-04-27 11:40 | 40.59672 | 48.46548 | 26042 ft | 494 kts | 268° |
| 2026-04-27 11:40 | 40.59564 | 48.42062 | 26458 ft | 497 kts | 268° |
| 2026-04-27 11:40 | 40.59450 | 48.37442 | 26876 ft | 500 kts | 268° |
| 2026-04-27 11:41 | 40.59338 | 48.32903 | 27277 ft | 503 kts | 268° |
| 2026-04-27 11:41 | 40.59222 | 48.28240 | 27680 ft | 506 kts | 268° |
| 2026-04-27 11:41 | 40.59106 | 48.23627 | 28070 ft | 509 kts | 268° |
| 2026-04-27 11:41 | 40.58989 | 48.18935 | 28459 ft | 512 kts | 268° |
| 2026-04-27 11:42 | 40.58872 | 48.14291 | 28903 ft | 513 kts | 268° |
| 2026-04-27 11:42 | 40.58741 | 48.09602 | 29431 ft | 512 kts | 268° |
| 2026-04-27 11:42 | 40.58609 | 48.04970 | 29962 ft | 510 kts | 268° |
| 2026-04-27 11:42 | 40.58475 | 48.00274 | 30487 ft | 509 kts | 268° |
| 2026-04-27 11:43 | 40.58356 | 47.95655 | 30975 ft | 507 kts | 269° |
| 2026-04-27 11:43 | 40.58398 | 47.91029 | 31422 ft | 506 kts | 272° |
| 2026-04-27 11:43 | 40.58535 | 47.86385 | 31866 ft | 504 kts | 272° |
| 2026-04-27 11:43 | 40.58697 | 47.81839 | 32286 ft | 503 kts | 272° |
| 2026-04-27 11:44 | 40.58862 | 47.77216 | 32696 ft | 502 kts | 272° |
| 2026-04-27 11:44 | 40.59018 | 47.72677 | 33076 ft | 501 kts | 272° |
| 2026-04-27 11:44 | 40.59171 | 47.68074 | 33446 ft | 500 kts | 272° |
| 2026-04-27 11:44 | 40.59318 | 47.63521 | 33794 ft | 498 kts | 272° |
| 2026-04-27 11:45 | 40.59463 | 47.58987 | 34123 ft | 497 kts | 272° |
| 2026-04-27 11:45 | 40.59605 | 47.54418 | 34440 ft | 496 kts | 272° |
| 2026-04-27 11:45 | 40.59744 | 47.49880 | 34741 ft | 496 kts | 272° |
| 2026-04-27 11:45 | 40.59880 | 47.45378 | 35021 ft | 495 kts | 272° |
| 2026-04-27 11:46 | 40.60016 | 47.40841 | 35271 ft | 494 kts | 272° |
| 2026-04-27 11:46 | 40.60147 | 47.36361 | 35494 ft | 494 kts | 272° |
| 2026-04-27 11:46 | 40.60278 | 47.31828 | 35705 ft | 494 kts | 272° |
| 2026-04-27 11:46 | 40.60407 | 47.27328 | 35854 ft | 494 kts | 272° |
| 2026-04-27 11:47 | 40.60700 | 47.18319 | 35850 ft | 493 kts | 275° |
| 2026-04-27 11:47 | 40.61526 | 47.09320 | 35855 ft | 493 kts | 278° |
| 2026-04-27 11:48 | 40.62461 | 47.00401 | 35858 ft | 493 kts | 278° |
| 2026-04-27 11:48 | 40.63375 | 46.91536 | 35859 ft | 493 kts | 277° |
| 2026-04-27 11:49 | 40.64286 | 46.82577 | 35859 ft | 493 kts | 277° |
| 2026-04-27 11:49 | 40.65187 | 46.73638 | 35858 ft | 493 kts | 277° |
| 2026-04-27 11:50 | 40.66076 | 46.64726 | 35858 ft | 493 kts | 277° |
| 2026-04-27 11:50 | 40.66958 | 46.55802 | 35858 ft | 493 kts | 277° |
| 2026-04-27 11:51 | 40.67836 | 46.46843 | 35858 ft | 493 kts | 277° |
| 2026-04-27 11:52 | 40.69134 | 46.33451 | 35858 ft | 493 kts | 277° |
| 2026-04-27 11:52 | 40.69992 | 46.24511 | 35858 ft | 493 kts | 277° |
| 2026-04-27 11:53 | 40.70844 | 46.15557 | 35858 ft | 493 kts | 277° |
| 2026-04-27 11:53 | 40.71689 | 46.06607 | 35858 ft | 493 kts | 277° |
| 2026-04-27 11:54 | 40.72524 | 45.97677 | 35858 ft | 493 kts | 277° |
| 2026-04-27 11:54 | 40.73353 | 45.88746 | 35858 ft | 493 kts | 277° |
| 2026-04-27 11:55 | 40.74178 | 45.79786 | 35858 ft | 493 kts | 277° |
| 2026-04-27 11:55 | 40.75000 | 45.70776 | 35858 ft | 493 kts | 277° |
| 2026-04-27 11:56 | 40.75811 | 45.61820 | 35858 ft | 493 kts | 277° |
| 2026-04-27 11:56 | 40.76619 | 45.52873 | 35858 ft | 493 kts | 277° |
| 2026-04-27 11:57 | 40.77202 | 45.43917 | 35860 ft | 493 kts | 274° |
| 2026-04-27 11:57 | 40.77597 | 45.34900 | 35859 ft | 493 kts | 273° |
| 2026-04-27 11:58 | 40.77988 | 45.25874 | 35859 ft | 493 kts | 273° |
| 2026-04-27 11:58 | 40.78381 | 45.16852 | 35858 ft | 493 kts | 273° |
| 2026-04-27 11:59 | 40.78769 | 45.07868 | 35858 ft | 493 kts | 273° |
| 2026-04-27 11:59 | 40.79152 | 44.98867 | 35858 ft | 493 kts | 273° |
| 2026-04-27 12:00 | 40.79532 | 44.89849 | 35858 ft | 493 kts | 273° |
| 2026-04-27 12:00 | 40.79903 | 44.80854 | 35858 ft | 493 kts | 273° |
| 2026-04-27 12:01 | 40.80271 | 44.71811 | 35858 ft | 493 kts | 273° |
| 2026-04-27 12:01 | 40.80631 | 44.62810 | 35858 ft | 493 kts | 273° |
| 2026-04-27 12:02 | 40.80984 | 44.53779 | 35858 ft | 493 kts | 273° |
| 2026-04-27 12:02 | 40.81330 | 44.44770 | 35858 ft | 493 kts | 273° |
| 2026-04-27 12:03 | 40.81670 | 44.35745 | 35858 ft | 493 kts | 273° |
| 2026-04-27 12:03 | 40.82003 | 44.26741 | 35858 ft | 493 kts | 272° |
| 2026-04-27 12:04 | 40.82329 | 44.17719 | 35858 ft | 493 kts | 272° |
| 2026-04-27 12:04 | 40.82648 | 44.08690 | 35858 ft | 493 kts | 272° |
| 2026-04-27 12:05 | 40.82961 | 43.99676 | 35858 ft | 493 kts | 272° |
| 2026-04-27 12:05 | 40.83268 | 43.90617 | 35858 ft | 493 kts | 272° |
| 2026-04-27 12:06 | 40.83568 | 43.81595 | 35858 ft | 493 kts | 272° |
| 2026-04-27 12:06 | 40.83863 | 43.72576 | 35858 ft | 493 kts | 272° |
| 2026-04-27 12:07 | 40.84237 | 43.63591 | 35859 ft | 493 kts | 274° |
| 2026-04-27 12:07 | 40.84740 | 43.54592 | 35859 ft | 493 kts | 274° |
| 2026-04-27 12:08 | 40.85244 | 43.45591 | 35858 ft | 493 kts | 274° |
| 2026-04-27 12:08 | 40.85739 | 43.36565 | 35858 ft | 493 kts | 274° |
| 2026-04-27 12:09 | 40.86227 | 43.27522 | 35858 ft | 493 kts | 274° |
| 2026-04-27 12:09 | 40.86706 | 43.18504 | 35858 ft | 493 kts | 274° |
| 2026-04-27 12:10 | 40.87175 | 43.09541 | 35858 ft | 493 kts | 274° |
| 2026-04-27 12:10 | 40.87641 | 43.00485 | 35858 ft | 493 kts | 274° |
| 2026-04-27 12:11 | 40.88097 | 42.91465 | 35858 ft | 493 kts | 274° |
| 2026-04-27 12:11 | 40.88547 | 42.82434 | 35858 ft | 493 kts | 274° |
| 2026-04-27 12:12 | 40.88988 | 42.73451 | 35858 ft | 493 kts | 274° |
| 2026-04-27 12:12 | 40.89423 | 42.64420 | 35858 ft | 493 kts | 274° |
| 2026-04-27 12:13 | 40.89853 | 42.55360 | 35858 ft | 493 kts | 274° |
| 2026-04-27 12:13 | 40.90272 | 42.46376 | 35858 ft | 493 kts | 274° |
| 2026-04-27 12:14 | 40.90687 | 42.37331 | 35858 ft | 493 kts | 274° |
| 2026-04-27 12:14 | 40.91095 | 42.28290 | 35858 ft | 493 kts | 273° |
| 2026-04-27 12:15 | 40.91497 | 42.19233 | 35858 ft | 493 kts | 273° |
| 2026-04-27 12:15 | 40.91889 | 42.10217 | 35858 ft | 493 kts | 273° |
| 2026-04-27 12:16 | 40.92276 | 42.01169 | 35858 ft | 493 kts | 273° |
| 2026-04-27 12:16 | 40.92654 | 41.92171 | 35858 ft | 493 kts | 273° |
| 2026-04-27 12:17 | 40.93025 | 41.83150 | 35858 ft | 493 kts | 273° |
| 2026-04-27 12:17 | 40.93391 | 41.74107 | 35858 ft | 493 kts | 273° |
| 2026-04-27 12:18 | 40.93749 | 41.65069 | 35858 ft | 493 kts | 273° |
| 2026-04-27 12:18 | 40.94101 | 41.56007 | 35858 ft | 493 kts | 273° |
| 2026-04-27 12:19 | 40.94443 | 41.47004 | 35858 ft | 493 kts | 273° |
| 2026-04-27 12:19 | 40.94780 | 41.37982 | 35858 ft | 493 kts | 273° |
| 2026-04-27 12:20 | 40.95111 | 41.28919 | 35858 ft | 493 kts | 272° |
| 2026-04-27 12:20 | 40.95434 | 41.19910 | 35858 ft | 493 kts | 272° |
| 2026-04-27 12:21 | 40.95753 | 41.10827 | 35858 ft | 493 kts | 272° |
| 2026-04-27 12:21 | 40.96063 | 41.01826 | 35858 ft | 493 kts | 272° |
| 2026-04-27 12:22 | 40.96369 | 40.92777 | 35858 ft | 493 kts | 272° |
| 2026-04-27 12:22 | 40.96668 | 40.83695 | 35858 ft | 493 kts | 272° |
| 2026-04-27 12:23 | 40.96946 | 40.74686 | 35858 ft | 493 kts | 272° |
| 2026-04-27 12:23 | 40.97220 | 40.65663 | 35858 ft | 493 kts | 272° |
| 2026-04-27 12:24 | 40.97489 | 40.56621 | 35858 ft | 493 kts | 272° |
| 2026-04-27 12:24 | 40.97754 | 40.47532 | 35858 ft | 493 kts | 272° |
| 2026-04-27 12:25 | 40.98014 | 40.38483 | 35858 ft | 493 kts | 272° |
| 2026-04-27 12:25 | 40.98268 | 40.29468 | 35858 ft | 493 kts | 272° |
| 2026-04-27 12:26 | 40.98525 | 40.20374 | 35858 ft | 493 kts | 272° |
| 2026-04-27 12:26 | 40.98758 | 40.11348 | 35858 ft | 493 kts | 272° |
| 2026-04-27 12:27 | 40.98978 | 40.02306 | 35858 ft | 493 kts | 272° |
| 2026-04-27 12:27 | 40.99195 | 39.93240 | 35858 ft | 493 kts | 272° |
| 2026-04-27 12:28 | 40.99410 | 39.84209 | 35858 ft | 493 kts | 272° |
| 2026-04-27 12:28 | 40.99886 | 39.75178 | 35865 ft | 493 kts | 277° |
| 2026-04-27 12:29 | 41.00755 | 39.66184 | 35860 ft | 493 kts | 277° |
| 2026-04-27 12:29 | 41.01597 | 39.57217 | 35849 ft | 492 kts | 276° |
| 2026-04-27 12:30 | 41.02429 | 39.48190 | 35852 ft | 493 kts | 277° |
| 2026-04-27 12:30 | 41.03299 | 39.39251 | 35858 ft | 493 kts | 277° |
| 2026-04-27 12:31 | 41.04166 | 39.30217 | 35859 ft | 493 kts | 277° |
| 2026-04-27 12:31 | 41.05013 | 39.21254 | 35859 ft | 493 kts | 277° |
| 2026-04-27 12:32 | 41.05851 | 39.12293 | 35858 ft | 493 kts | 277° |
| 2026-04-27 12:32 | 41.06669 | 39.03299 | 35858 ft | 493 kts | 277° |
| 2026-04-27 12:33 | 41.07484 | 38.94247 | 35858 ft | 493 kts | 277° |
| 2026-04-27 12:33 | 41.08285 | 38.85284 | 35858 ft | 493 kts | 277° |
| 2026-04-27 12:34 | 41.09086 | 38.76250 | 35858 ft | 493 kts | 277° |
| 2026-04-27 12:34 | 41.09875 | 38.67281 | 35858 ft | 493 kts | 277° |
| 2026-04-27 12:35 | 41.10665 | 38.58239 | 35858 ft | 493 kts | 277° |
| 2026-04-27 12:35 | 41.11445 | 38.49248 | 35858 ft | 493 kts | 277° |
| 2026-04-27 12:36 | 41.12223 | 38.40194 | 35858 ft | 493 kts | 277° |
| 2026-04-27 12:36 | 41.12990 | 38.31183 | 35858 ft | 493 kts | 276° |
| 2026-04-27 12:37 | 41.13750 | 38.22181 | 35858 ft | 493 kts | 276° |
| 2026-04-27 12:37 | 41.14504 | 38.13180 | 35858 ft | 493 kts | 276° |
| 2026-04-27 12:38 | 41.15253 | 38.04137 | 35858 ft | 493 kts | 276° |
| 2026-04-27 12:38 | 41.15997 | 37.95102 | 35858 ft | 493 kts | 276° |
| 2026-04-27 12:39 | 41.16733 | 37.86076 | 35858 ft | 493 kts | 276° |
| 2026-04-27 12:39 | 41.17462 | 37.77070 | 35858 ft | 493 kts | 276° |
| 2026-04-27 12:40 | 41.18190 | 37.68021 | 35858 ft | 493 kts | 276° |
| 2026-04-27 12:40 | 41.18859 | 37.59036 | 35859 ft | 493 kts | 274° |
| 2026-04-27 12:41 | 41.19376 | 37.49962 | 35860 ft | 493 kts | 276° |
| 2026-04-27 12:41 | 41.20053 | 37.40938 | 35859 ft | 493 kts | 276° |
| 2026-04-27 12:42 | 41.20739 | 37.31905 | 35858 ft | 493 kts | 275° |
| 2026-04-27 12:42 | 41.21414 | 37.22848 | 35858 ft | 493 kts | 275° |
| 2026-04-27 12:43 | 41.22105 | 37.13818 | 35858 ft | 493 kts | 276° |
| 2026-04-27 12:43 | 41.22803 | 37.04735 | 35858 ft | 493 kts | 276° |
| 2026-04-27 12:44 | 41.23493 | 36.95690 | 35858 ft | 493 kts | 276° |
| 2026-04-27 12:44 | 41.24175 | 36.86682 | 35858 ft | 493 kts | 276° |
| 2026-04-27 12:45 | 41.24852 | 36.77668 | 35858 ft | 493 kts | 276° |
| 2026-04-27 12:45 | 41.25529 | 36.68574 | 35858 ft | 493 kts | 276° |
| 2026-04-27 12:46 | 41.26199 | 36.59539 | 35858 ft | 493 kts | 276° |
| 2026-04-27 12:46 | 41.27664 | 36.50697 | 35892 ft | 494 kts | 288° |
| 2026-04-27 12:47 | 41.29818 | 36.42079 | 35860 ft | 493 kts | 289° |
| 2026-04-27 12:47 | 41.32022 | 36.33409 | 35858 ft | 493 kts | 288° |
| 2026-04-27 12:48 | 41.34198 | 36.24804 | 35858 ft | 493 kts | 288° |
| 2026-04-27 12:48 | 41.36371 | 36.16184 | 35858 ft | 493 kts | 288° |
| 2026-04-27 12:49 | 41.38551 | 36.07512 | 35858 ft | 493 kts | 288° |
| 2026-04-27 12:49 | 41.40706 | 35.98909 | 35858 ft | 493 kts | 288° |
| 2026-04-27 12:50 | 41.42869 | 35.90250 | 35858 ft | 493 kts | 288° |
| 2026-04-27 12:50 | 41.45027 | 35.81579 | 35858 ft | 493 kts | 288° |
| 2026-04-27 12:51 | 41.47175 | 35.72916 | 35858 ft | 493 kts | 288° |
| 2026-04-27 12:51 | 41.49313 | 35.64267 | 35858 ft | 493 kts | 288° |
| 2026-04-27 12:52 | 41.51451 | 35.55582 | 35858 ft | 493 kts | 288° |
| 2026-04-27 12:52 | 41.53578 | 35.46913 | 35858 ft | 493 kts | 288° |
| 2026-04-27 12:53 | 41.56748 | 35.33931 | 35858 ft | 493 kts | 288° |
| 2026-04-27 12:53 | 41.58873 | 35.25190 | 35858 ft | 493 kts | 288° |
| 2026-04-27 12:54 | 41.60975 | 35.16512 | 35858 ft | 493 kts | 288° |
| 2026-04-27 12:54 | 41.63077 | 35.07798 | 35858 ft | 493 kts | 288° |
| 2026-04-27 12:55 | 41.65165 | 34.99115 | 35858 ft | 493 kts | 288° |
| 2026-04-27 12:55 | 41.67263 | 34.90355 | 35858 ft | 493 kts | 288° |
| 2026-04-27 12:56 | 41.69339 | 34.81660 | 35858 ft | 493 kts | 288° |
| 2026-04-27 12:56 | 41.71413 | 34.72942 | 35858 ft | 493 kts | 288° |
| 2026-04-27 12:57 | 41.73484 | 34.64207 | 35858 ft | 493 kts | 288° |
| 2026-04-27 12:57 | 41.75549 | 34.55474 | 35858 ft | 493 kts | 288° |
| 2026-04-27 12:58 | 41.77594 | 34.46731 | 35858 ft | 493 kts | 288° |
| 2026-04-27 12:58 | 41.79641 | 34.37954 | 35858 ft | 493 kts | 288° |
| 2026-04-27 12:59 | 41.81672 | 34.29214 | 35858 ft | 493 kts | 287° |
| 2026-04-27 12:59 | 41.83709 | 34.20427 | 35858 ft | 493 kts | 287° |
| 2026-04-27 13:00 | 41.85723 | 34.11710 | 35858 ft | 493 kts | 287° |
| 2026-04-27 13:00 | 41.87744 | 34.02936 | 35858 ft | 493 kts | 287° |
| 2026-04-27 13:01 | 41.89762 | 33.94143 | 35858 ft | 493 kts | 287° |
| 2026-04-27 13:01 | 41.91772 | 33.85360 | 35858 ft | 493 kts | 287° |
| 2026-04-27 13:02 | 41.93782 | 33.76559 | 35858 ft | 493 kts | 287° |
| 2026-04-27 13:02 | 41.95716 | 33.67801 | 35860 ft | 493 kts | 285° |
| 2026-04-27 13:03 | 41.97442 | 33.58865 | 35858 ft | 493 kts | 284° |
| 2026-04-27 13:03 | 41.99127 | 33.49987 | 35858 ft | 493 kts | 284° |
| 2026-04-27 13:04 | 42.00823 | 33.41072 | 35858 ft | 493 kts | 284° |
| 2026-04-27 13:04 | 42.02523 | 33.32130 | 35858 ft | 493 kts | 284° |
| 2026-04-27 13:05 | 42.04213 | 33.23222 | 35858 ft | 493 kts | 284° |
| 2026-04-27 13:05 | 42.05901 | 33.14303 | 35858 ft | 493 kts | 284° |
| 2026-04-27 13:06 | 42.07604 | 33.05412 | 35858 ft | 493 kts | 285° |
| 2026-04-27 13:06 | 42.09420 | 32.96501 | 35858 ft | 493 kts | 285° |
| 2026-04-27 13:07 | 42.11237 | 32.87640 | 35858 ft | 493 kts | 285° |
| 2026-04-27 13:07 | 42.13058 | 32.78708 | 35858 ft | 493 kts | 285° |
| 2026-04-27 13:08 | 42.14853 | 32.69862 | 35858 ft | 493 kts | 285° |
| 2026-04-27 13:08 | 42.16659 | 32.60939 | 35858 ft | 493 kts | 285° |
| 2026-04-27 13:09 | 42.18438 | 32.52036 | 35858 ft | 493 kts | 285° |
| 2026-04-27 13:09 | 42.20202 | 32.43154 | 35858 ft | 493 kts | 285° |
| 2026-04-27 13:10 | 42.21971 | 32.34229 | 35858 ft | 493 kts | 284° |
| 2026-04-27 13:10 | 42.23740 | 32.25294 | 35858 ft | 493 kts | 284° |
| 2026-04-27 13:11 | 42.25504 | 32.16347 | 35858 ft | 493 kts | 284° |
| 2026-04-27 13:11 | 42.27243 | 32.07421 | 35858 ft | 493 kts | 284° |
| 2026-04-27 13:12 | 42.28976 | 31.98516 | 35858 ft | 493 kts | 284° |
| 2026-04-27 13:12 | 42.30708 | 31.89581 | 35858 ft | 493 kts | 284° |
| 2026-04-27 13:13 | 42.32438 | 31.80631 | 35858 ft | 493 kts | 284° |
| 2026-04-27 13:13 | 42.34166 | 31.71652 | 35858 ft | 493 kts | 284° |
| 2026-04-27 13:14 | 42.35883 | 31.62698 | 35858 ft | 493 kts | 284° |
| 2026-04-27 13:14 | 42.37587 | 31.53773 | 35858 ft | 493 kts | 284° |
| 2026-04-27 13:15 | 42.39290 | 31.44822 | 35858 ft | 493 kts | 284° |
| 2026-04-27 13:15 | 42.40990 | 31.35846 | 35858 ft | 493 kts | 284° |
| 2026-04-27 13:16 | 42.42681 | 31.26886 | 35858 ft | 493 kts | 284° |
| 2026-04-27 13:16 | 42.44380 | 31.17858 | 35858 ft | 493 kts | 284° |
| 2026-04-27 13:17 | 42.46067 | 31.08880 | 35858 ft | 493 kts | 284° |
| 2026-04-27 13:17 | 42.47725 | 30.99904 | 35858 ft | 493 kts | 284° |
| 2026-04-27 13:18 | 42.49373 | 30.90937 | 35858 ft | 493 kts | 284° |
| 2026-04-27 13:18 | 42.51029 | 30.81891 | 35858 ft | 493 kts | 284° |
| 2026-04-27 13:19 | 42.52671 | 30.72888 | 35858 ft | 493 kts | 284° |
| 2026-04-27 13:19 | 42.54301 | 30.63918 | 35858 ft | 493 kts | 284° |
| 2026-04-27 13:20 | 42.55933 | 30.54899 | 35858 ft | 493 kts | 284° |
| 2026-04-27 13:20 | 42.57558 | 30.45888 | 35858 ft | 493 kts | 284° |
| 2026-04-27 13:21 | 42.59179 | 30.36868 | 35858 ft | 493 kts | 284° |
| 2026-04-27 13:21 | 42.61294 | 30.28085 | 35842 ft | 492 kts | 303° |
| 2026-04-27 13:22 | 42.65514 | 30.20774 | 35850 ft | 493 kts | 309° |
| 2026-04-27 13:22 | 42.69897 | 30.13642 | 35858 ft | 493 kts | 310° |
| 2026-04-27 13:23 | 42.74228 | 30.06420 | 35858 ft | 493 kts | 309° |
| 2026-04-27 13:23 | 42.78671 | 29.99359 | 35858 ft | 493 kts | 311° |
| 2026-04-27 13:24 | 42.83203 | 29.92434 | 35858 ft | 493 kts | 311° |
| 2026-04-27 13:24 | 42.87750 | 29.85460 | 35858 ft | 493 kts | 311° |
| 2026-04-27 13:25 | 42.92279 | 29.78485 | 35858 ft | 493 kts | 311° |
| 2026-04-27 13:25 | 42.96819 | 29.71468 | 35858 ft | 493 kts | 311° |
| 2026-04-27 13:26 | 43.01325 | 29.64485 | 35858 ft | 493 kts | 311° |
| 2026-04-27 13:26 | 43.05860 | 29.57437 | 35858 ft | 493 kts | 311° |
| 2026-04-27 13:27 | 43.10372 | 29.50405 | 35858 ft | 493 kts | 311° |
| 2026-04-27 13:27 | 43.14892 | 29.43344 | 35858 ft | 493 kts | 311° |
| 2026-04-27 13:28 | 43.19395 | 29.36292 | 35858 ft | 493 kts | 311° |
| 2026-04-27 13:28 | 43.23882 | 29.29247 | 35858 ft | 493 kts | 311° |
| 2026-04-27 13:29 | 43.28368 | 29.22185 | 35858 ft | 493 kts | 311° |
| 2026-04-27 13:29 | 43.32873 | 29.15076 | 35858 ft | 493 kts | 311° |
| 2026-04-27 13:30 | 43.37353 | 29.07988 | 35858 ft | 493 kts | 311° |
| 2026-04-27 13:30 | 43.41814 | 29.00914 | 35858 ft | 493 kts | 311° |
| 2026-04-27 13:31 | 43.46308 | 28.93770 | 35858 ft | 493 kts | 311° |
| 2026-04-27 13:31 | 43.50775 | 28.86652 | 35858 ft | 493 kts | 311° |
| 2026-04-27 13:32 | 43.55257 | 28.79494 | 35858 ft | 493 kts | 311° |
| 2026-04-27 13:32 | 43.59726 | 28.72338 | 35858 ft | 493 kts | 311° |
| 2026-04-27 13:33 | 43.63941 | 28.64929 | 35871 ft | 493 kts | 303° |
| 2026-04-27 13:33 | 43.67403 | 28.56778 | 35857 ft | 493 kts | 300° |
| 2026-04-27 13:34 | 43.70678 | 28.48477 | 35859 ft | 493 kts | 297° |
| 2026-04-27 13:34 | 43.73914 | 28.40190 | 35861 ft | 493 kts | 300° |
| 2026-04-27 13:35 | 43.77390 | 28.31992 | 35859 ft | 493 kts | 300° |
| 2026-04-27 13:35 | 43.80848 | 28.23831 | 35858 ft | 493 kts | 300° |
| 2026-04-27 13:36 | 43.84277 | 28.15689 | 35858 ft | 493 kts | 300° |
| 2026-04-27 13:36 | 43.87717 | 28.07487 | 35858 ft | 493 kts | 300° |
| 2026-04-27 13:37 | 43.91162 | 27.99247 | 35858 ft | 493 kts | 300° |
| 2026-04-27 13:37 | 43.94587 | 27.91027 | 35858 ft | 493 kts | 300° |
| 2026-04-27 13:38 | 43.97995 | 27.82823 | 35858 ft | 493 kts | 300° |
| 2026-04-27 13:38 | 44.01405 | 27.74591 | 35858 ft | 493 kts | 300° |
| 2026-04-27 13:39 | 44.04819 | 27.66322 | 35858 ft | 493 kts | 300° |
| 2026-04-27 13:39 | 44.08219 | 27.58062 | 35858 ft | 493 kts | 300° |
| 2026-04-27 13:40 | 44.11599 | 27.49827 | 35858 ft | 493 kts | 300° |
| 2026-04-27 13:40 | 44.14992 | 27.41538 | 35858 ft | 493 kts | 300° |
| 2026-04-27 13:41 | 44.18376 | 27.33245 | 35858 ft | 493 kts | 299° |
| 2026-04-27 13:41 | 44.21759 | 27.24930 | 35858 ft | 493 kts | 299° |
| 2026-04-27 13:42 | 44.25126 | 27.16629 | 35858 ft | 493 kts | 299° |
| 2026-04-27 13:42 | 44.28469 | 27.08363 | 35858 ft | 493 kts | 299° |
| 2026-04-27 13:43 | 44.31831 | 27.00027 | 35858 ft | 493 kts | 299° |
| 2026-04-27 13:43 | 44.35201 | 26.91646 | 35858 ft | 493 kts | 299° |
| 2026-04-27 13:44 | 44.38546 | 26.83304 | 35858 ft | 493 kts | 299° |
| 2026-04-27 13:44 | 44.41875 | 26.74972 | 35858 ft | 493 kts | 299° |
| 2026-04-27 13:45 | 44.45211 | 26.66604 | 35858 ft | 493 kts | 299° |
| 2026-04-27 13:45 | 44.48535 | 26.58238 | 35858 ft | 493 kts | 299° |
| 2026-04-27 13:46 | 44.51843 | 26.49889 | 35858 ft | 493 kts | 299° |
| 2026-04-27 13:46 | 44.55158 | 26.41495 | 35858 ft | 493 kts | 299° |
| 2026-04-27 13:47 | 44.58474 | 26.33075 | 35858 ft | 493 kts | 298° |
| 2026-04-27 13:47 | 44.61783 | 26.24648 | 35858 ft | 493 kts | 298° |
| 2026-04-27 13:48 | 44.65080 | 26.16223 | 35858 ft | 493 kts | 298° |
| 2026-04-27 13:48 | 44.68368 | 26.07797 | 35858 ft | 493 kts | 298° |
| 2026-04-27 13:49 | 44.71647 | 25.99371 | 35858 ft | 493 kts | 298° |
| 2026-04-27 13:49 | 44.74934 | 25.90896 | 35858 ft | 493 kts | 298° |
| 2026-04-27 13:50 | 44.78189 | 25.82480 | 35858 ft | 493 kts | 298° |
| 2026-04-27 13:50 | 44.81453 | 25.74014 | 35858 ft | 493 kts | 298° |
| 2026-04-27 13:51 | 44.84712 | 25.65537 | 35858 ft | 493 kts | 298° |
| 2026-04-27 13:51 | 44.87965 | 25.57047 | 35858 ft | 493 kts | 298° |
| 2026-04-27 13:52 | 44.91222 | 25.48521 | 35858 ft | 493 kts | 298° |
| 2026-04-27 13:52 | 44.94449 | 25.40047 | 35858 ft | 493 kts | 298° |
| 2026-04-27 13:53 | 44.99285 | 25.27300 | 35856 ft | 491 kts | 298° |
| 2026-04-27 13:54 | 45.02523 | 25.18733 | 35854 ft | 493 kts | 298° |
| 2026-04-27 13:54 | 45.05727 | 25.10230 | 35858 ft | 493 kts | 298° |
| 2026-04-27 13:55 | 45.08942 | 25.01670 | 35859 ft | 493 kts | 298° |
| 2026-04-27 13:55 | 45.12153 | 24.93096 | 35859 ft | 493 kts | 298° |
| 2026-04-27 13:56 | 45.15346 | 24.84540 | 35858 ft | 493 kts | 298° |
| 2026-04-27 13:56 | 45.18555 | 24.75919 | 35858 ft | 493 kts | 298° |
| 2026-04-27 13:57 | 45.21735 | 24.67345 | 35858 ft | 493 kts | 298° |
| 2026-04-27 13:57 | 45.24923 | 24.58722 | 35858 ft | 493 kts | 298° |
| 2026-04-27 13:58 | 45.27967 | 24.50053 | 35862 ft | 493 kts | 294° |
| 2026-04-27 13:58 | 45.30577 | 24.41097 | 35857 ft | 493 kts | 292° |
| 2026-04-27 13:59 | 45.33238 | 24.32078 | 35858 ft | 493 kts | 293° |
| 2026-04-27 13:59 | 45.35961 | 24.23150 | 35858 ft | 493 kts | 294° |
| 2026-04-27 14:00 | 45.38746 | 24.14263 | 35858 ft | 493 kts | 294° |
| 2026-04-27 14:00 | 45.42031 | 24.05769 | 35880 ft | 494 kts | 304° |
| 2026-04-27 14:01 | 45.45535 | 23.97412 | 35877 ft | 494 kts | 300° |
| 2026-04-27 14:01 | 45.49081 | 23.89091 | 35857 ft | 493 kts | 303° |
| 2026-04-27 14:02 | 45.52831 | 23.80902 | 35855 ft | 493 kts | 302° |
| 2026-04-27 14:02 | 45.56340 | 23.72558 | 35856 ft | 493 kts | 299° |
| 2026-04-27 14:03 | 45.59522 | 23.63864 | 35858 ft | 493 kts | 297° |
| 2026-04-27 14:03 | 45.62531 | 23.55088 | 35858 ft | 493 kts | 296° |
| 2026-04-27 14:04 | 45.65580 | 23.46379 | 35858 ft | 493 kts | 297° |
| 2026-04-27 14:04 | 45.68662 | 23.37639 | 35858 ft | 493 kts | 297° |
| 2026-04-27 14:05 | 45.71738 | 23.28892 | 35858 ft | 493 kts | 296° |
| 2026-04-27 14:05 | 45.74809 | 23.20139 | 35858 ft | 493 kts | 296° |
| 2026-04-27 14:06 | 45.77871 | 23.11383 | 35858 ft | 493 kts | 296° |
| 2026-04-27 14:06 | 45.80938 | 23.02589 | 35858 ft | 493 kts | 296° |
| 2026-04-27 14:07 | 45.83981 | 22.93837 | 35858 ft | 493 kts | 296° |
| 2026-04-27 14:07 | 45.87036 | 22.85024 | 35858 ft | 493 kts | 296° |
| 2026-04-27 14:08 | 45.90055 | 22.76285 | 35858 ft | 493 kts | 296° |
| 2026-04-27 14:08 | 45.93094 | 22.67458 | 35858 ft | 493 kts | 296° |
| 2026-04-27 14:09 | 45.96118 | 22.58648 | 35858 ft | 493 kts | 296° |
| 2026-04-27 14:09 | 45.99144 | 22.49800 | 35858 ft | 493 kts | 296° |
| 2026-04-27 14:10 | 46.02162 | 22.40950 | 35858 ft | 493 kts | 296° |
| 2026-04-27 14:10 | 46.05167 | 22.32106 | 35858 ft | 493 kts | 296° |
| 2026-04-27 14:11 | 46.08166 | 22.23252 | 35858 ft | 493 kts | 296° |
| 2026-04-27 14:11 | 46.11147 | 22.14422 | 35858 ft | 493 kts | 296° |
| 2026-04-27 14:12 | 46.14140 | 22.05526 | 35858 ft | 493 kts | 296° |
| 2026-04-27 14:12 | 46.17131 | 21.96605 | 35858 ft | 493 kts | 296° |
| 2026-04-27 14:13 | 46.20096 | 21.87730 | 35858 ft | 493 kts | 296° |
| 2026-04-27 14:13 | 46.23052 | 21.78853 | 35858 ft | 493 kts | 296° |
| 2026-04-27 14:14 | 46.26019 | 21.69912 | 35858 ft | 493 kts | 296° |
| 2026-04-27 14:14 | 46.28964 | 21.61010 | 35858 ft | 493 kts | 296° |
| 2026-04-27 14:15 | 46.31920 | 21.52042 | 35858 ft | 493 kts | 296° |
| 2026-04-27 14:15 | 46.34845 | 21.43137 | 35858 ft | 493 kts | 296° |
| 2026-04-27 14:16 | 46.37776 | 21.34181 | 35858 ft | 493 kts | 295° |
| 2026-04-27 14:16 | 46.40713 | 21.25178 | 35858 ft | 493 kts | 295° |
| 2026-04-27 14:17 | 46.43608 | 21.16273 | 35858 ft | 493 kts | 295° |
| 2026-04-27 14:17 | 46.46537 | 21.07228 | 35858 ft | 493 kts | 295° |
| 2026-04-27 14:18 | 46.49422 | 20.98293 | 35858 ft | 493 kts | 295° |
| 2026-04-27 14:18 | 46.52319 | 20.89287 | 35858 ft | 493 kts | 295° |
| 2026-04-27 14:19 | 46.55204 | 20.80286 | 35858 ft | 493 kts | 295° |
| 2026-04-27 14:19 | 46.58084 | 20.71270 | 35858 ft | 493 kts | 295° |
| 2026-04-27 14:20 | 46.60974 | 20.62190 | 35858 ft | 493 kts | 295° |
| 2026-04-27 14:20 | 46.63824 | 20.53205 | 35858 ft | 493 kts | 295° |
| 2026-04-27 14:21 | 46.66693 | 20.44130 | 35858 ft | 493 kts | 295° |
| 2026-04-27 14:21 | 46.69536 | 20.35103 | 35858 ft | 493 kts | 295° |
| 2026-04-27 14:22 | 46.72400 | 20.25975 | 35858 ft | 493 kts | 294° |
| 2026-04-27 14:22 | 46.75223 | 20.16950 | 35858 ft | 493 kts | 294° |
| 2026-04-27 14:22 | 46.76643 | 20.12396 | 35961 ft | 496 kts | 294° |
| 2026-04-27 14:23 | 46.78065 | 20.07829 | 36300 ft | 495 kts | 294° |
| 2026-04-27 14:23 | 46.79486 | 20.03257 | 36629 ft | 495 kts | 294° |
| 2026-04-27 14:23 | 46.80911 | 19.98661 | 36938 ft | 494 kts | 294° |
| 2026-04-27 14:23 | 46.82326 | 19.94092 | 37218 ft | 494 kts | 294° |
| 2026-04-27 14:24 | 46.83720 | 19.89580 | 37478 ft | 494 kts | 294° |
| 2026-04-27 14:24 | 46.85125 | 19.85030 | 37728 ft | 494 kts | 294° |
| 2026-04-27 14:24 | 46.86540 | 19.80434 | 37857 ft | 494 kts | 294° |
| 2026-04-27 14:25 | 46.89343 | 19.71306 | 37859 ft | 493 kts | 294° |
| 2026-04-27 14:25 | 46.92121 | 19.62229 | 37858 ft | 492 kts | 294° |
| 2026-04-27 14:26 | 46.94912 | 19.53074 | 37858 ft | 493 kts | 294° |
| 2026-04-27 14:26 | 46.97681 | 19.43960 | 37858 ft | 493 kts | 294° |
| 2026-04-27 14:27 | 47.00446 | 19.34824 | 37858 ft | 493 kts | 294° |
| 2026-04-27 14:27 | 47.03221 | 19.25623 | 37858 ft | 493 kts | 294° |
| 2026-04-27 14:28 | 47.05976 | 19.16453 | 37858 ft | 493 kts | 294° |
| 2026-04-27 14:28 | 47.08720 | 19.07287 | 37858 ft | 493 kts | 294° |
| 2026-04-27 14:29 | 47.11452 | 18.98128 | 37858 ft | 493 kts | 294° |
| 2026-04-27 14:29 | 47.14203 | 18.88867 | 37858 ft | 493 kts | 294° |
| 2026-04-27 14:30 | 47.16913 | 18.79714 | 37858 ft | 493 kts | 294° |
| 2026-04-27 14:30 | 47.19638 | 18.70472 | 37858 ft | 493 kts | 294° |
| 2026-04-27 14:31 | 47.22361 | 18.61208 | 37858 ft | 493 kts | 294° |
| 2026-04-27 14:31 | 47.25047 | 18.52031 | 37858 ft | 493 kts | 294° |
| 2026-04-27 14:32 | 47.27744 | 18.42783 | 37858 ft | 493 kts | 294° |
| 2026-04-27 14:32 | 47.30435 | 18.33521 | 37858 ft | 493 kts | 292° |
| 2026-04-27 14:33 | 47.33118 | 18.24251 | 37858 ft | 493 kts | 292° |
| 2026-04-27 14:33 | 47.35784 | 18.15002 | 37858 ft | 493 kts | 293° |
| 2026-04-27 14:34 | 47.38453 | 18.05709 | 37858 ft | 493 kts | 292° |
| 2026-04-27 14:34 | 47.41114 | 17.96412 | 37858 ft | 493 kts | 293° |
| 2026-04-27 14:35 | 47.43759 | 17.87132 | 37858 ft | 493 kts | 293° |
| 2026-04-27 14:35 | 47.46411 | 17.77791 | 37858 ft | 493 kts | 293° |
| 2026-04-27 14:36 | 47.49047 | 17.68476 | 37858 ft | 493 kts | 293° |
| 2026-04-27 14:36 | 47.51683 | 17.59119 | 37858 ft | 493 kts | 293° |
| 2026-04-27 14:37 | 47.54295 | 17.49814 | 37858 ft | 493 kts | 293° |
| 2026-04-27 14:37 | 47.56900 | 17.40502 | 37858 ft | 493 kts | 293° |
| 2026-04-27 14:38 | 47.59522 | 17.31089 | 37858 ft | 493 kts | 292° |
| 2026-04-27 14:38 | 47.62115 | 17.21748 | 37858 ft | 493 kts | 292° |
| 2026-04-27 14:39 | 47.64715 | 17.12350 | 37858 ft | 493 kts | 292° |
| 2026-04-27 14:39 | 47.67303 | 17.02970 | 37858 ft | 493 kts | 292° |
| 2026-04-27 14:40 | 47.69902 | 16.93574 | 37858 ft | 493 kts | 292° |
| 2026-04-27 14:40 | 47.72488 | 16.84221 | 37858 ft | 493 kts | 292° |
| 2026-04-27 14:41 | 47.75085 | 16.74791 | 37858 ft | 493 kts | 292° |
| 2026-04-27 14:41 | 47.77654 | 16.65433 | 37858 ft | 493 kts | 292° |
| 2026-04-27 14:42 | 47.80229 | 16.56017 | 37858 ft | 493 kts | 292° |
| 2026-04-27 14:42 | 47.82811 | 16.46542 | 37858 ft | 493 kts | 292° |
| 2026-04-27 14:43 | 47.85368 | 16.37120 | 37858 ft | 493 kts | 292° |
| 2026-04-27 14:43 | 47.87920 | 16.27683 | 37858 ft | 493 kts | 291° |
| 2026-04-27 14:44 | 47.90455 | 16.18275 | 37858 ft | 493 kts | 291° |
| 2026-04-27 14:44 | 47.93000 | 16.08789 | 37858 ft | 493 kts | 291° |
| 2026-04-27 14:45 | 47.95541 | 15.99284 | 37858 ft | 493 kts | 291° |
| 2026-04-27 14:45 | 47.98061 | 15.89819 | 37858 ft | 493 kts | 291° |
| 2026-04-27 14:46 | 48.00570 | 15.80356 | 37858 ft | 493 kts | 291° |
| 2026-04-27 14:46 | 48.03089 | 15.70817 | 37858 ft | 493 kts | 291° |
| 2026-04-27 14:47 | 48.05585 | 15.61326 | 37858 ft | 493 kts | 291° |
| 2026-04-27 14:47 | 48.08066 | 15.51856 | 37858 ft | 493 kts | 291° |
| 2026-04-27 14:48 | 48.10560 | 15.42298 | 37858 ft | 493 kts | 291° |
| 2026-04-27 14:48 | 48.14276 | 15.27979 | 37858 ft | 493 kts | 291° |
| 2026-04-27 14:49 | 48.16736 | 15.18455 | 37858 ft | 493 kts | 291° |
| 2026-04-27 14:49 | 48.19204 | 15.08859 | 37858 ft | 493 kts | 291° |
| 2026-04-27 14:50 | 48.21650 | 14.99307 | 37858 ft | 493 kts | 291° |
| 2026-04-27 14:50 | 48.24082 | 14.89771 | 37858 ft | 493 kts | 291° |
| 2026-04-27 14:51 | 48.26527 | 14.80146 | 37858 ft | 493 kts | 291° |
| 2026-04-27 14:51 | 48.28958 | 14.70534 | 37858 ft | 493 kts | 291° |
| 2026-04-27 14:52 | 48.31361 | 14.60996 | 37858 ft | 493 kts | 291° |
| 2026-04-27 14:52 | 48.33779 | 14.51352 | 37858 ft | 493 kts | 291° |
| 2026-04-27 14:53 | 48.36174 | 14.41765 | 37858 ft | 493 kts | 291° |
| 2026-04-27 14:53 | 48.38574 | 14.32113 | 37858 ft | 493 kts | 290° |
| 2026-04-27 14:54 | 48.40963 | 14.22467 | 37858 ft | 493 kts | 290° |
| 2026-04-27 14:54 | 48.43341 | 14.12824 | 37858 ft | 493 kts | 290° |
| 2026-04-27 14:55 | 48.45707 | 14.03189 | 37858 ft | 493 kts | 290° |
| 2026-04-27 14:55 | 48.48058 | 13.93573 | 37858 ft | 493 kts | 290° |
| 2026-04-27 14:56 | 48.50423 | 13.83862 | 37858 ft | 493 kts | 290° |
| 2026-04-27 14:56 | 48.52772 | 13.74181 | 37858 ft | 493 kts | 290° |
| 2026-04-27 14:57 | 48.55099 | 13.64548 | 37858 ft | 493 kts | 290° |
| 2026-04-27 14:57 | 48.57441 | 13.54807 | 37858 ft | 493 kts | 290° |
| 2026-04-27 14:58 | 48.59776 | 13.45096 | 37859 ft | 493 kts | 290° |
| 2026-04-27 14:58 | 48.62096 | 13.35423 | 37859 ft | 493 kts | 290° |
| 2026-04-27 14:59 | 48.64425 | 13.25676 | 37858 ft | 493 kts | 289° |
| 2026-04-27 14:59 | 48.66736 | 13.15972 | 37858 ft | 493 kts | 289° |
| 2026-04-27 15:00 | 48.69051 | 13.06206 | 37858 ft | 493 kts | 289° |
| 2026-04-27 15:00 | 48.71363 | 12.96415 | 37858 ft | 493 kts | 289° |
| 2026-04-27 15:01 | 48.73648 | 12.86698 | 37858 ft | 493 kts | 289° |
| 2026-04-27 15:01 | 48.75942 | 12.76899 | 37858 ft | 493 kts | 289° |
| 2026-04-27 15:02 | 48.78219 | 12.67133 | 37858 ft | 493 kts | 289° |
| 2026-04-27 15:02 | 48.80479 | 12.57399 | 37858 ft | 493 kts | 289° |
| 2026-04-27 15:03 | 48.82755 | 12.47556 | 37858 ft | 493 kts | 289° |
| 2026-04-27 15:03 | 48.85004 | 12.37794 | 37858 ft | 493 kts | 290° |
| 2026-04-27 15:04 | 48.87262 | 12.27960 | 37858 ft | 493 kts | 289° |
| 2026-04-27 15:04 | 48.89758 | 12.18326 | 37868 ft | 493 kts | 295° |
| 2026-04-27 15:05 | 48.92742 | 12.08935 | 37859 ft | 493 kts | 296° |
| 2026-04-27 15:05 | 48.95735 | 11.99583 | 37858 ft | 493 kts | 296° |
| 2026-04-27 15:06 | 48.98687 | 11.90271 | 37858 ft | 493 kts | 296° |
| 2026-04-27 15:06 | 49.01659 | 11.80846 | 37858 ft | 493 kts | 296° |
| 2026-04-27 15:07 | 49.04606 | 11.71457 | 37858 ft | 493 kts | 296° |
| 2026-04-27 15:07 | 49.07545 | 11.62055 | 37858 ft | 493 kts | 296° |
| 2026-04-27 15:08 | 49.10484 | 11.52617 | 37858 ft | 493 kts | 296° |
| 2026-04-27 15:08 | 49.13394 | 11.43238 | 37858 ft | 493 kts | 296° |
| 2026-04-27 15:09 | 49.16318 | 11.33776 | 37858 ft | 493 kts | 295° |
| 2026-04-27 15:09 | 49.19236 | 11.24295 | 37858 ft | 493 kts | 295° |
| 2026-04-27 15:10 | 49.22143 | 11.14815 | 37858 ft | 493 kts | 295° |
| 2026-04-27 15:10 | 49.25019 | 11.05404 | 37859 ft | 493 kts | 295° |
| 2026-04-27 15:11 | 49.27918 | 10.95878 | 37856 ft | 492 kts | 295° |
| 2026-04-27 15:11 | 49.29347 | 10.91170 | 37503 ft | 494 kts | 295° |
| 2026-04-27 15:11 | 49.30808 | 10.86345 | 36992 ft | 502 kts | 295° |
| 2026-04-27 15:12 | 49.32274 | 10.81503 | 36467 ft | 498 kts | 295° |
| 2026-04-27 15:12 | 49.33744 | 10.76789 | 35929 ft | 491 kts | 300° |
| 2026-04-27 15:12 | 49.35553 | 10.72433 | 35583 ft | 488 kts | 304° |
| 2026-04-27 15:12 | 49.37526 | 10.68164 | 35260 ft | 494 kts | 306° |
| 2026-04-27 15:13 | 49.39605 | 10.63933 | 34913 ft | 494 kts | 308° |
| 2026-04-27 15:13 | 49.41698 | 10.59849 | 34568 ft | 494 kts | 309° |
| 2026-04-27 15:13 | 49.43781 | 10.55670 | 34226 ft | 496 kts | 307° |
| 2026-04-27 15:13 | 49.45799 | 10.51377 | 33880 ft | 497 kts | 306° |
| 2026-04-27 15:14 | 49.47809 | 10.47004 | 33528 ft | 498 kts | 306° |
| 2026-04-27 15:14 | 49.49787 | 10.42676 | 33180 ft | 499 kts | 306° |
| 2026-04-27 15:14 | 49.51777 | 10.38329 | 32830 ft | 500 kts | 306° |
| 2026-04-27 15:14 | 49.53780 | 10.33959 | 32479 ft | 500 kts | 305° |
| 2026-04-27 15:15 | 49.55778 | 10.29604 | 32128 ft | 501 kts | 305° |
| 2026-04-27 15:15 | 49.57790 | 10.25219 | 31775 ft | 502 kts | 305° |
| 2026-04-27 15:15 | 49.59799 | 10.20837 | 31422 ft | 503 kts | 305° |
| 2026-04-27 15:15 | 49.61797 | 10.16477 | 31070 ft | 504 kts | 305° |
| 2026-04-27 15:16 | 49.63806 | 10.12086 | 30716 ft | 505 kts | 305° |
| 2026-04-27 15:16 | 49.65824 | 10.07672 | 30361 ft | 506 kts | 305° |
| 2026-04-27 15:16 | 49.67854 | 10.03228 | 30003 ft | 506 kts | 305° |
| 2026-04-27 15:16 | 49.69887 | 9.98770 | 29644 ft | 507 kts | 305° |
| 2026-04-27 15:17 | 49.71702 | 9.94111 | 29271 ft | 508 kts | 296° |
| 2026-04-27 15:17 | 49.73102 | 9.89159 | 28941 ft | 510 kts | 292° |
| 2026-04-27 15:17 | 49.74382 | 9.84004 | 28584 ft | 512 kts | 290° |
| 2026-04-27 15:17 | 49.75612 | 9.78870 | 28215 ft | 508 kts | 290° |
| 2026-04-27 15:18 | 49.76817 | 9.73834 | 27844 ft | 502 kts | 290° |
| 2026-04-27 15:18 | 49.78034 | 9.68782 | 27474 ft | 498 kts | 290° |
| 2026-04-27 15:18 | 49.79238 | 9.63803 | 27117 ft | 496 kts | 291° |
| 2026-04-27 15:18 | 49.80436 | 9.58850 | 26762 ft | 494 kts | 291° |
| 2026-04-27 15:19 | 49.81632 | 9.53899 | 26407 ft | 492 kts | 291° |
| 2026-04-27 15:19 | 49.82823 | 9.48961 | 26052 ft | 489 kts | 291° |
| 2026-04-27 15:19 | 49.84014 | 9.44022 | 25697 ft | 487 kts | 291° |
| 2026-04-27 15:19 | 49.85171 | 9.39186 | 25457 ft | 481 kts | 287° |
| 2026-04-27 15:20 | 49.85832 | 9.34112 | 25285 ft | 482 kts | 275° |
| 2026-04-27 15:20 | 49.85928 | 9.28899 | 25133 ft | 482 kts | 269° |
| 2026-04-27 15:20 | 49.85818 | 9.23758 | 24961 ft | 482 kts | 266° |
| 2026-04-27 15:20 | 49.85592 | 9.18582 | 24784 ft | 480 kts | 265° |
| 2026-04-27 15:21 | 49.85349 | 9.13413 | 24604 ft | 479 kts | 265° |
| 2026-04-27 15:21 | 49.85112 | 9.08326 | 24402 ft | 478 kts | 265° |
| 2026-04-27 15:21 | 49.84874 | 9.03157 | 24157 ft | 477 kts | 266° |
| 2026-04-27 15:21 | 49.84636 | 8.98050 | 23888 ft | 475 kts | 265° |
| 2026-04-27 15:22 | 49.84401 | 8.92972 | 23456 ft | 475 kts | 266° |
| 2026-04-27 15:22 | 49.84173 | 8.87918 | 23033 ft | 471 kts | 266° |
| 2026-04-27 15:22 | 49.83947 | 8.82886 | 22606 ft | 465 kts | 266° |
| 2026-04-27 15:22 | 49.83724 | 8.77972 | 22194 ft | 462 kts | 266° |
| 2026-04-27 15:23 | 49.83496 | 8.72977 | 21778 ft | 459 kts | 266° |
| 2026-04-27 15:23 | 49.83270 | 8.68064 | 21369 ft | 457 kts | 266° |
| 2026-04-27 15:23 | 49.83045 | 8.63236 | 20967 ft | 455 kts | 266° |
| 2026-04-27 15:23 | 49.82818 | 8.58380 | 20563 ft | 452 kts | 266° |
| 2026-04-27 15:24 | 49.82587 | 8.53502 | 20156 ft | 449 kts | 266° |
| 2026-04-27 15:24 | 49.82359 | 8.48712 | 19757 ft | 447 kts | 266° |
| 2026-04-27 15:24 | 49.82128 | 8.43919 | 19357 ft | 444 kts | 266° |
| 2026-04-27 15:24 | 49.81901 | 8.39232 | 18966 ft | 441 kts | 266° |
| 2026-04-27 15:25 | 49.81672 | 8.34539 | 18565 ft | 433 kts | 265° |
| 2026-04-27 15:25 | 49.81445 | 8.29936 | 18168 ft | 424 kts | 265° |
| 2026-04-27 15:25 | 49.81221 | 8.25416 | 17778 ft | 416 kts | 265° |
| 2026-04-27 15:25 | 49.81001 | 8.21007 | 17399 ft | 408 kts | 265° |
| 2026-04-27 15:26 | 49.80785 | 8.16715 | 17030 ft | 400 kts | 265° |
| 2026-04-27 15:26 | 49.80570 | 8.12461 | 16664 ft | 392 kts | 265° |
| 2026-04-27 15:26 | 49.80358 | 8.08312 | 16308 ft | 385 kts | 265° |
| 2026-04-27 15:26 | 49.80148 | 8.04207 | 15955 ft | 377 kts | 265° |
| 2026-04-27 15:27 | 49.79942 | 8.00228 | 15614 ft | 370 kts | 265° |
| 2026-04-27 15:27 | 49.79736 | 7.96265 | 15275 ft | 365 kts | 265° |
| 2026-04-27 15:27 | 49.79532 | 7.92372 | 14953 ft | 362 kts | 265° |
| 2026-04-27 15:27 | 49.79330 | 7.88541 | 14636 ft | 360 kts | 265° |
| 2026-04-27 15:28 | 49.79127 | 7.84705 | 14320 ft | 357 kts | 265° |
| 2026-04-27 15:28 | 49.78925 | 7.80904 | 13999 ft | 352 kts | 265° |
| 2026-04-27 15:28 | 49.78725 | 7.77186 | 13846 ft | 340 kts | 265° |
| 2026-04-27 15:28 | 49.78531 | 7.73570 | 13848 ft | 332 kts | 265° |
| 2026-04-27 15:29 | 49.78339 | 7.70000 | 13866 ft | 337 kts | 265° |
| 2026-04-27 15:29 | 49.78142 | 7.66378 | 13595 ft | 343 kts | 265° |
| 2026-04-27 15:29 | 49.77942 | 7.62693 | 13259 ft | 340 kts | 265° |
| 2026-04-27 15:29 | 49.77710 | 7.59003 | 12956 ft | 360 kts | 264° |
| 2026-04-27 15:30 | 49.77422 | 7.55067 | 12663 ft | 375 kts | 264° |
| 2026-04-27 15:30 | 49.77123 | 7.51082 | 12294 ft | 370 kts | 264° |
| 2026-04-27 15:30 | 49.76830 | 7.47173 | 11926 ft | 364 kts | 264° |
| 2026-04-27 15:30 | 49.76541 | 7.43301 | 11562 ft | 358 kts | 264° |
| 2026-04-27 15:31 | 49.76259 | 7.39532 | 11208 ft | 352 kts | 264° |
| 2026-04-27 15:31 | 49.75977 | 7.35771 | 10853 ft | 346 kts | 264° |
| 2026-04-27 15:31 | 49.75702 | 7.32119 | 10495 ft | 341 kts | 263° |
| 2026-04-27 15:31 | 49.75430 | 7.28500 | 10137 ft | 336 kts | 263° |
| 2026-04-27 15:32 | 49.74984 | 7.25003 | 9768 ft | 329 kts | 249° |
| 2026-04-27 15:32 | 49.73915 | 7.21930 | 9460 ft | 322 kts | 232° |
| 2026-04-27 15:32 | 49.72331 | 7.19570 | 9150 ft | 315 kts | 215° |
| 2026-04-27 15:32 | 49.70527 | 7.17736 | 8859 ft | 309 kts | 212° |
| 2026-04-27 15:33 | 49.68728 | 7.16003 | 8554 ft | 304 kts | 212° |
| 2026-04-27 15:33 | 49.67104 | 7.14017 | 8191 ft | 298 kts | 232° |
| 2026-04-27 15:33 | 49.66351 | 7.11131 | 7890 ft | 290 kts | 266° |
| 2026-04-27 15:33 | 49.66680 | 7.08085 | 7523 ft | 287 kts | 296° |
| 2026-04-27 15:34 | 49.67916 | 7.05776 | 7160 ft | 285 kts | 326° |
| 2026-04-27 15:34 | 49.69752 | 7.04736 | 6805 ft | 281 kts | 356° |
| 2026-04-27 15:34 | 49.71681 | 7.04790 | 6474 ft | 279 kts | 4° |
| 2026-04-27 15:34 | 49.73551 | 7.05566 | 6049 ft | 280 kts | 28° |
| 2026-04-27 15:35 | 49.75217 | 7.07134 | 5664 ft | 280 kts | 32° |
| 2026-04-27 15:35 | 49.76837 | 7.08711 | 5426 ft | 275 kts | 32° |
| 2026-04-27 15:35 | 49.78444 | 7.10258 | 5085 ft | 267 kts | 32° |
| 2026-04-27 15:35 | 49.79978 | 7.11753 | 4746 ft | 260 kts | 32° |
| 2026-04-27 15:36 | 49.81468 | 7.13211 | 4459 ft | 250 kts | 32° |
| 2026-04-27 15:36 | 49.82928 | 7.14641 | 4092 ft | 243 kts | 32° |
| 2026-04-27 15:36 | 49.84329 | 7.16013 | 3753 ft | 236 kts | 32° |
| 2026-04-27 15:36 | 49.85682 | 7.17342 | 3432 ft | 228 kts | 32° |
| 2026-04-27 15:37 | 49.87011 | 7.18648 | 3120 ft | 221 kts | 32° |
| 2026-04-27 15:37 | 49.88282 | 7.19897 | 2833 ft | 213 kts | 32° |
| 2026-04-27 15:37 | 49.89498 | 7.21093 | 2598 ft | 200 kts | 32° |
| 2026-04-27 15:37 | 49.90632 | 7.22209 | 2310 ft | 185 kts | 32° |
| 2026-04-27 15:38 | 49.91656 | 7.23220 | 2050 ft | 168 kts | 32° |
| 2026-04-27 15:38 | 49.92614 | 7.24163 | 1833 ft | 161 kts | 32° |
| 2026-04-27 15:38 | 49.93583 | 7.25118 | 1666 ft | 161 kts | 32° |
| 2026-04-27 15:38 | 49.94420 | 7.25944 | 1643 ft | 114 kts | 32° |
| 2026-04-27 15:39 | 49.94939 | 7.26459 | 1626 ft | 74 kts | 32° |
| 2026-04-27 15:39 | 49.95316 | 7.26827 | 1613 ft | 58 kts | 32° |
| 2026-04-27 15:39 | 49.95592 | 7.27103 | 1605 ft | 38 kts | 33° |
| 2026-04-27 15:39 | 49.95726 | 7.27239 | 1602 ft | 17 kts | 39° |
| 2026-04-27 15:40 | 49.95748 | 7.27355 | 1602 ft | 9 kts | 115° |
| 2026-04-27 15:40 | 49.95706 | 7.27430 | 1602 ft | 8 kts | 136° |
| 2026-04-27 15:40 | 49.95665 | 7.27479 | 1603 ft | 6 kts | 148° |
| 2026-04-27 15:40 | 49.95624 | 7.27515 | 1603 ft | 6 kts | 150° |
| 2026-04-27 15:41 | 49.95575 | 7.27545 | 1602 ft | 8 kts | 179° |
| 2026-04-27 15:41 | 49.95525 | 7.27515 | 1603 ft | 7 kts | 210° |
| 2026-04-27 15:41 | 49.95475 | 7.27468 | 1602 ft | 10 kts | 212° |
| 2026-04-27 15:41 | 49.95400 | 7.27395 | 1601 ft | 14 kts | 212° |
| 2026-04-27 15:42 | 49.95336 | 7.27336 | 1603 ft | 7 kts | 195° |
| 2026-04-27 15:42 | 49.95303 | 7.27363 | 1602 ft | 6 kts | 122° |
| 2026-04-27 15:42 | 49.95275 | 7.27432 | 1599 ft | 8 kts | 122° |
| 2026-04-27 15:42 | 49.95266 | 7.27452 | 1599 ft | 0 kts | 123° |